createdAt,value
2019-04-20T00:00:25.260Z,11.33
2019-04-20T00:01:29.248Z,11.28
2019-04-20T00:02:25.588Z,11.26
2019-04-20T00:03:34.664Z,11.23
2019-04-20T00:04:30.361Z,11.27
2019-04-20T00:05:25.515Z,11.21
2019-04-20T00:06:24.976Z,11.31
2019-04-20T00:07:29.486Z,11.20
2019-04-20T00:08:29.374Z,11.26
2019-04-20T00:09:29.851Z,11.26
2019-04-20T00:10:27.264Z,11.21
2019-04-20T00:11:31.022Z,11.13
2019-04-20T00:12:36.858Z,11.23
2019-04-20T00:13:37.819Z,11.23
2019-04-20T00:14:29.607Z,11.16
2019-04-20T00:15:26.029Z,11.12
2019-04-20T00:16:25.211Z,11.09
2019-04-20T00:17:25.519Z,11.13
2019-04-20T00:18:28.072Z,11.09
2019-04-20T00:19:33.416Z,11.06
2019-04-20T00:20:30.625Z,11.03
2019-04-20T00:22:36.731Z,11.03
2019-04-20T00:23:32.763Z,10.98
2019-04-20T00:24:30.303Z,10.95
2019-04-20T00:25:38.558Z,10.91
2019-04-20T00:26:57.840Z,10.90
2019-04-20T00:27:44.474Z,10.93
2019-04-20T00:28:45.612Z,10.87
2019-04-20T00:29:45.411Z,10.84
2019-04-20T00:30:49.069Z,10.76
2019-04-20T00:31:42.162Z,10.81
2019-04-20T00:32:41.252Z,10.81
2019-04-20T00:33:40.979Z,10.72
2019-04-20T00:34:30.469Z,10.78
2019-04-20T00:35:25.197Z,10.73
2019-04-20T00:36:24.345Z,10.78
2019-04-20T00:37:25.382Z,10.81
2019-04-20T00:38:28.001Z,10.84
2019-04-20T00:39:25.903Z,10.78
2019-04-20T00:40:24.134Z,10.81
2019-04-20T00:41:25.526Z,10.68
2019-04-20T00:42:33.155Z,10.78
2019-04-20T00:43:30.745Z,10.73
2019-04-20T00:44:31.659Z,10.76
2019-04-20T00:45:29.594Z,10.73
2019-04-20T00:46:34.007Z,10.73
2019-04-20T00:47:37.104Z,10.83
2019-04-20T00:48:35.306Z,10.66
2019-04-20T00:49:38.836Z,10.70
2019-04-20T00:50:41.176Z,10.65
2019-04-20T00:51:39.562Z,10.70
2019-04-20T00:52:41.237Z,10.57
2019-04-20T00:53:31.393Z,10.60
2019-04-20T00:54:26.279Z,10.68
2019-04-20T00:55:25.194Z,10.58
2019-04-20T00:56:24.466Z,10.54
2019-04-20T00:57:34.673Z,10.62
2019-04-20T00:58:31.652Z,10.54
2019-04-20T00:59:35.426Z,10.51
2019-04-20T01:00:41.064Z,10.52
2019-04-20T01:01:43.906Z,10.55
2019-04-20T01:02:37.115Z,10.52
2019-04-20T01:03:39.092Z,10.60
2019-04-20T01:04:46.224Z,10.55
2019-04-20T01:05:46.560Z,10.47
2019-04-20T01:06:41.017Z,10.54
2019-04-20T01:07:35.105Z,10.49
2019-04-20T01:08:25.471Z,10.52
2019-04-20T01:09:24.606Z,10.49
2019-04-20T01:10:29.219Z,10.49
2019-04-20T01:11:33.217Z,10.57
2019-04-20T01:12:28.537Z,10.58
2019-04-20T01:13:26.662Z,10.69
2019-04-20T01:14:36.108Z,10.66
2019-04-20T01:15:35.246Z,10.65
2019-04-20T01:16:36.832Z,10.63
2019-04-20T01:17:24.717Z,10.69
2019-04-20T01:18:23.735Z,10.70
2019-04-20T01:19:23.700Z,10.68
2019-04-20T01:20:26.558Z,10.66
2019-04-20T01:21:26.534Z,10.66
2019-04-20T01:22:27.297Z,10.66
2019-04-20T01:23:29.192Z,10.63
2019-04-20T01:24:32.809Z,10.66
2019-04-20T01:25:31.733Z,10.62
2019-04-20T01:26:26.027Z,10.60
2019-04-20T01:27:37.848Z,10.54
2019-04-20T01:28:37.452Z,10.49
2019-04-20T01:29:32.362Z,10.44
2019-04-20T01:30:31.987Z,10.43
2019-04-20T01:31:33.628Z,10.44
2019-04-20T01:32:34.301Z,10.46
2019-04-20T01:33:37.282Z,10.36
2019-04-20T01:34:38.955Z,10.31
2019-04-20T01:35:39.178Z,10.31
2019-04-20T01:36:40.671Z,10.31
2019-04-20T01:37:36.484Z,10.24
2019-04-20T01:38:42.731Z,10.24
2019-04-20T01:39:32.934Z,10.18
2019-04-20T01:40:25.362Z,10.22
2019-04-20T01:41:24.439Z,10.18
2019-04-20T01:42:23.510Z,10.22
2019-04-20T01:43:24.675Z,10.13
2019-04-20T01:44:29.924Z,10.13
2019-04-20T01:45:29.334Z,10.09
2019-04-20T01:46:28.025Z,10.16
2019-04-20T01:47:30.560Z,10.10
2019-04-20T01:48:28.738Z,9.93
2019-04-20T01:49:28.659Z,10.02
2019-04-20T01:50:28.419Z,10.01
2019-04-20T01:51:28.639Z,9.89
2019-04-20T01:52:28.827Z,9.88
2019-04-20T01:53:41.154Z,9.89
2019-04-20T01:54:44.565Z,9.85
2019-04-20T01:55:57.009Z,9.85
2019-04-20T01:56:36.177Z,9.83
2019-04-20T01:57:29.841Z,9.83
2019-04-20T01:58:39.846Z,9.80
2019-04-20T01:59:34.480Z,9.77
2019-04-20T02:00:29.619Z,9.78
2019-04-20T02:01:29.444Z,9.86
2019-04-20T02:02:26.068Z,9.91
2019-04-20T02:03:31.322Z,9.81
2019-04-20T02:04:27.986Z,9.78
2019-04-20T02:05:29.671Z,9.80
2019-04-20T02:06:26.796Z,9.63
2019-04-20T02:07:28.432Z,9.74
2019-04-20T02:08:27.469Z,9.65
2019-04-20T02:09:27.357Z,9.75
2019-04-20T02:10:31.949Z,9.63
2019-04-20T02:11:29.617Z,9.67
2019-04-20T02:12:27.514Z,9.70
2019-04-20T02:13:26.410Z,9.68
2019-04-20T02:14:32.631Z,9.63
2019-04-20T02:15:32.704Z,9.59
2019-04-20T02:16:31.786Z,9.50
2019-04-20T02:17:33.585Z,9.53
2019-04-20T02:18:39.279Z,9.53
2019-04-20T02:19:39.253Z,9.52
2019-04-20T02:20:45.039Z,9.50
2019-04-20T02:21:38.202Z,9.49
2019-04-20T02:22:42.155Z,9.52
2019-04-20T02:23:34.732Z,9.45
2019-04-20T02:24:23.993Z,9.38
2019-04-20T02:25:22.982Z,9.42
2019-04-20T02:26:23.983Z,9.45
2019-04-20T02:27:30.843Z,9.37
2019-04-20T02:28:44.356Z,9.44
2019-04-20T02:29:46.107Z,9.32
2019-04-20T02:31:06.383Z,9.24
2019-04-20T02:32:04.699Z,9.31
2019-04-20T02:33:01.109Z,9.27
2019-04-20T02:33:55.746Z,9.24
2019-04-20T02:34:55.603Z,9.24
2019-04-20T02:36:04.160Z,9.16
2019-04-20T02:38:05.671Z,9.15
2019-04-20T02:40:02.885Z,9.19
2019-04-20T02:40:57.409Z,9.13
2019-04-20T02:42:57.563Z,9.17
2019-04-20T02:44:19.812Z,9.12
2019-04-20T02:45:01.391Z,9.13
2019-04-20T02:45:50.552Z,9.12
2019-04-20T02:46:56.888Z,9.13
2019-04-20T02:48:06.522Z,9.13
2019-04-20T02:49:01.035Z,9.10
2019-04-20T02:50:07.505Z,9.12
2019-04-20T02:50:59.015Z,9.16
2019-04-20T02:51:54.745Z,9.12
2019-04-20T02:53:15.498Z,9.15
2019-04-20T02:54:14.065Z,9.12
2019-04-20T02:55:02.087Z,9.10
2019-04-20T02:55:58.565Z,9.04
2019-04-20T02:59:15.112Z,9.23
2019-04-20T03:00:49.398Z,9.20
2019-04-20T03:01:51.905Z,9.26
2019-04-20T03:02:37.305Z,9.15
2019-04-20T03:03:32.837Z,9.22
2019-04-20T03:04:35.070Z,9.19
2019-04-20T03:05:35.244Z,9.24
2019-04-20T03:06:33.033Z,9.23
2019-04-20T03:07:34.119Z,9.19
2019-04-20T03:08:47.280Z,9.15
2019-04-20T03:09:45.716Z,9.26
2019-04-20T03:10:58.535Z,9.20
2019-04-20T03:11:53.006Z,9.17
2019-04-20T03:12:44.894Z,9.22
2019-04-20T03:13:45.029Z,9.16
2019-04-20T03:14:39.623Z,9.13
2019-04-20T03:15:44.527Z,9.19
2019-04-20T03:16:39.298Z,9.12
2019-04-20T03:17:44.610Z,9.19
2019-04-20T03:18:39.963Z,9.15
2019-04-20T03:19:40.841Z,9.12
2019-04-20T03:20:46.269Z,9.08
2019-04-20T03:21:49.797Z,9.06
2019-04-20T03:23:05.193Z,9.13
2019-04-20T03:23:52.167Z,9.19
2019-04-20T03:24:59.082Z,9.10
2019-04-20T03:25:53.442Z,9.16
2019-04-20T03:26:43.132Z,9.15
2019-04-20T03:27:39.392Z,9.27
2019-04-20T03:28:38.812Z,9.20
2019-04-20T03:29:47.392Z,9.26
2019-04-20T03:32:22.136Z,9.31
2019-04-20T03:33:21.003Z,9.19
2019-04-20T03:34:03.388Z,9.20
2019-04-20T03:35:01.162Z,9.20
2019-04-20T03:35:52.794Z,9.10
2019-04-20T03:36:55.057Z,9.19
2019-04-20T03:38:01.321Z,9.31
2019-04-20T03:38:43.320Z,9.27
2019-04-20T03:39:40.542Z,9.15
2019-04-20T03:40:37.342Z,9.19
2019-04-20T03:41:32.506Z,9.16
2019-04-20T03:42:24.336Z,9.12
2019-04-20T03:43:22.307Z,9.12
2019-04-20T03:44:26.391Z,9.20
2019-04-20T03:45:25.417Z,9.13
2019-04-20T03:46:31.087Z,9.10
2019-04-20T03:47:33.750Z,9.12
2019-04-20T03:48:41.482Z,9.08
2019-04-20T03:49:50.725Z,9.03
2019-04-20T03:51:47.101Z,9.00
2019-04-20T03:52:38.426Z,9.01
2019-04-20T03:53:43.319Z,9.04
2019-04-20T03:54:34.686Z,9.00
2019-04-20T03:55:41.953Z,9.03
2019-04-20T03:56:46.278Z,9.03
2019-04-20T03:57:47.053Z,8.97
2019-04-20T03:58:37.843Z,9.01
2019-04-20T03:59:41.263Z,9.06
2019-04-20T04:00:42.482Z,9.04
2019-04-20T04:02:02.155Z,9.08
2019-04-20T04:02:54.589Z,9.13
2019-04-20T04:03:47.013Z,9.16
2019-04-20T04:04:44.319Z,9.15
2019-04-20T04:05:38.454Z,9.03
2019-04-20T04:06:31.193Z,9.06
2019-04-20T04:07:32.308Z,9.03
2019-04-20T04:08:30.949Z,9.13
2019-04-20T04:09:33.166Z,9.08
2019-04-20T04:10:33.728Z,9.04
2019-04-20T04:11:38.162Z,9.06
2019-04-20T04:12:30.497Z,9.04
2019-04-20T04:13:23.031Z,8.97
2019-04-20T04:14:21.949Z,9.00
2019-04-20T04:15:23.034Z,8.96
2019-04-20T04:16:23.817Z,8.96
2019-04-20T04:17:28.802Z,8.94
2019-04-20T04:18:29.862Z,8.88
2019-04-20T04:19:28.469Z,8.88
2019-04-20T04:20:23.210Z,8.78
2019-04-20T04:21:41.190Z,8.86
2019-04-20T04:22:42.009Z,8.80
2019-04-20T04:23:40.830Z,8.80
2019-04-20T04:24:31.519Z,8.88
2019-04-20T04:25:33.664Z,8.73
2019-04-20T04:26:38.945Z,8.78
2019-04-20T04:27:43.809Z,8.80
2019-04-20T04:28:32.199Z,8.78
2019-04-20T04:29:44.186Z,8.80
2019-04-20T04:30:39.303Z,8.67
2019-04-20T04:31:50.697Z,8.71
2019-04-20T04:33:10.911Z,8.75
2019-04-20T04:34:39.136Z,8.70
2019-04-20T04:35:35.066Z,8.78
2019-04-20T04:36:44.566Z,8.65
2019-04-20T04:37:40.818Z,8.64
2019-04-20T04:38:59.832Z,8.70
2019-04-20T04:39:42.815Z,8.65
2019-04-20T04:40:49.705Z,8.70
2019-04-20T04:41:43.926Z,8.70
2019-04-20T04:42:46.604Z,8.67
2019-04-20T04:43:42.605Z,8.65
2019-04-20T04:44:35.404Z,8.70
2019-04-20T04:45:26.744Z,8.60
2019-04-20T04:46:22.843Z,8.71
2019-04-20T04:47:21.898Z,8.68
2019-04-20T04:48:28.241Z,8.67
2019-04-20T04:49:28.457Z,8.67
2019-04-20T04:50:25.200Z,8.68
2019-04-20T04:52:30.909Z,8.65
2019-04-20T04:53:29.864Z,8.65
2019-04-20T04:54:33.593Z,8.68
2019-04-20T04:55:32.770Z,8.60
2019-04-20T04:56:25.177Z,8.63
2019-04-20T04:57:22.248Z,8.61
2019-04-20T04:58:21.640Z,8.68
2019-04-20T04:59:21.429Z,8.60
2019-04-20T05:00:26.215Z,8.61
2019-04-20T05:01:27.410Z,8.63
2019-04-20T05:02:29.688Z,8.60
2019-04-20T05:03:38.720Z,8.63
2019-04-20T05:04:48.344Z,8.58
2019-04-20T05:05:41.379Z,8.61
2019-04-20T05:06:35.897Z,8.61
2019-04-20T05:07:34.277Z,8.58
2019-04-20T05:08:30.436Z,8.57
2019-04-20T05:09:23.748Z,8.64
2019-04-20T05:10:22.319Z,8.57
2019-04-20T05:11:21.696Z,8.55
2019-04-20T05:12:24.281Z,8.63
2019-04-20T05:13:26.797Z,8.54
2019-04-20T05:14:32.049Z,8.63
2019-04-20T05:15:37.657Z,8.60
2019-04-20T05:16:42.793Z,8.63
2019-04-20T05:17:43.473Z,8.58
2019-04-20T05:18:44.972Z,8.64
2019-04-20T05:19:41.250Z,8.60
2019-04-20T05:20:47.049Z,8.67
2019-04-20T05:21:44.581Z,8.65
2019-04-20T05:22:42.893Z,8.68
2019-04-20T05:23:35.341Z,8.68
2019-04-20T05:24:33.798Z,8.68
2019-04-20T05:25:37.795Z,8.70
2019-04-20T05:26:42.684Z,8.73
2019-04-20T05:27:44.000Z,8.75
2019-04-20T05:28:33.333Z,8.82
2019-04-20T05:29:29.295Z,8.85
2019-04-20T05:30:22.424Z,8.85
2019-04-20T05:31:23.235Z,8.94
2019-04-20T05:32:32.764Z,8.94
2019-04-20T05:33:34.365Z,8.97
2019-04-20T05:34:45.362Z,9.00
2019-04-20T05:35:47.202Z,9.16
2019-04-20T05:36:41.511Z,9.15
2019-04-20T05:37:51.453Z,9.24
2019-04-20T05:39:05.226Z,9.23
2019-04-20T05:39:48.594Z,9.42
2019-04-20T05:40:38.612Z,9.37
2019-04-20T05:41:44.021Z,9.52
2019-04-20T05:42:44.197Z,9.60
2019-04-20T05:43:37.204Z,9.58
2019-04-20T05:44:42.377Z,9.65
2019-04-20T05:45:35.395Z,9.71
2019-04-20T05:46:42.406Z,9.80
2019-04-20T05:47:43.156Z,9.93
2019-04-20T05:48:48.741Z,10.04
2019-04-20T05:49:41.054Z,10.16
2019-04-20T05:50:43.057Z,10.14
2019-04-20T05:51:39.676Z,10.28
2019-04-20T05:52:50.425Z,10.36
2019-04-20T05:53:47.463Z,10.39
2019-04-20T05:54:44.665Z,10.49
2019-04-20T05:55:43.008Z,10.47
2019-04-20T05:57:00.914Z,10.62
2019-04-20T05:57:42.284Z,10.54
2019-04-20T05:58:40.541Z,10.69
2019-04-20T05:59:49.382Z,10.78
2019-04-20T06:00:48.115Z,10.86
2019-04-20T06:01:47.433Z,10.94
2019-04-20T06:02:44.110Z,11.01
2019-04-20T06:03:38.282Z,11.08
2019-04-20T06:04:54.553Z,11.05
2019-04-20T06:05:48.800Z,11.17
2019-04-20T06:06:44.646Z,11.17
2019-04-20T06:07:44.156Z,11.12
2019-04-20T06:08:47.963Z,11.28
2019-04-20T06:09:42.311Z,11.26
2019-04-20T06:10:45.208Z,11.42
2019-04-20T06:12:00.849Z,11.48
2019-04-20T06:12:40.209Z,11.70
2019-04-20T06:13:36.926Z,11.67
2019-04-20T06:14:39.414Z,11.77
2019-04-20T06:15:42.938Z,11.79
2019-04-20T06:16:48.519Z,12.00
2019-04-20T06:17:44.470Z,11.93
2019-04-20T06:18:37.249Z,12.00
2019-04-20T06:19:39.494Z,12.00
2019-04-20T06:20:41.152Z,12.11
2019-04-20T06:21:45.708Z,12.21
2019-04-20T06:22:40.768Z,12.37
2019-04-20T06:23:45.597Z,12.34
2019-04-20T06:24:46.892Z,12.49
2019-04-20T06:25:53.807Z,12.51
2019-04-20T06:26:50.917Z,12.48
2019-04-20T06:27:49.208Z,12.63
2019-04-20T06:28:37.797Z,12.59
2019-04-20T06:29:43.446Z,12.61
2019-04-20T06:30:38.097Z,12.73
2019-04-20T06:31:41.013Z,12.74
2019-04-20T06:32:39.221Z,12.84
2019-04-20T06:34:12.805Z,12.77
2019-04-20T06:34:53.481Z,12.88
2019-04-20T06:36:00.955Z,12.91
2019-04-20T06:36:46.145Z,12.95
2019-04-20T06:37:44.160Z,13.01
2019-04-20T06:38:58.835Z,13.01
2019-04-20T06:39:44.773Z,13.06
2019-04-20T06:42:02.207Z,13.10
2019-04-20T06:42:39.779Z,13.14
2019-04-20T06:43:46.030Z,13.21
2019-04-20T06:44:56.927Z,13.29
2019-04-20T06:45:51.125Z,13.31
2019-04-20T06:46:43.166Z,13.25
2019-04-20T06:47:50.103Z,13.29
2019-04-20T06:48:45.902Z,13.38
2019-04-20T06:49:56.785Z,13.47
2019-04-20T06:50:39.052Z,13.54
2019-04-20T06:51:41.768Z,13.57
2019-04-20T06:52:41.489Z,13.66
2019-04-20T06:53:45.270Z,13.62
2019-04-20T06:54:44.856Z,13.72
2019-04-20T06:55:49.764Z,13.73
2019-04-20T06:56:42.001Z,13.83
2019-04-20T06:57:54.759Z,13.84
2019-04-20T06:59:43.128Z,13.94
2019-04-20T07:00:42.188Z,14.04
2019-04-20T07:01:50.032Z,14.13
2019-04-20T07:02:54.000Z,14.17
2019-04-20T07:03:58.101Z,14.12
2019-04-20T07:04:58.012Z,14.30
2019-04-20T07:05:39.508Z,14.29
2019-04-20T07:06:54.920Z,14.41
2019-04-20T07:07:45.464Z,14.36
2019-04-20T07:08:56.839Z,14.39
2019-04-20T07:10:46.867Z,14.52
2019-04-20T07:11:45.065Z,14.54
2019-04-20T07:12:39.581Z,14.69
2019-04-20T07:13:33.108Z,14.67
2019-04-20T07:14:32.911Z,14.72
2019-04-20T07:15:36.444Z,14.79
2019-04-20T07:16:43.289Z,14.94
2019-04-20T07:17:47.985Z,14.95
2019-04-20T07:18:42.502Z,15.03
2019-04-20T07:19:40.137Z,15.13
2019-04-20T07:20:51.680Z,15.09
2019-04-20T07:21:55.898Z,15.15
2019-04-20T07:22:39.440Z,15.25
2019-04-20T07:23:40.673Z,15.19
2019-04-20T07:24:48.933Z,15.27
2019-04-20T07:25:43.287Z,15.37
2019-04-20T07:26:44.971Z,15.41
2019-04-20T07:27:41.541Z,15.46
2019-04-20T07:28:45.093Z,15.46
2019-04-20T07:29:46.310Z,15.48
2019-04-20T07:30:41.513Z,15.56
2019-04-20T07:31:43.305Z,15.60
2019-04-20T07:32:48.627Z,15.70
2019-04-20T07:33:39.947Z,15.64
2019-04-20T07:34:38.706Z,15.73
2019-04-20T07:35:44.854Z,15.76
2019-04-20T07:37:57.179Z,15.85
2019-04-20T07:39:02.107Z,16.03
2019-04-20T07:39:46.225Z,16.06
2019-04-20T07:40:38.136Z,16.11
2019-04-20T07:41:47.762Z,16.17
2019-04-20T07:42:52.362Z,16.16
2019-04-20T07:43:54.025Z,16.25
2019-04-20T07:44:51.189Z,16.30
2019-04-20T07:45:40.096Z,16.37
2019-04-20T07:46:56.375Z,16.40
2019-04-20T07:48:01.682Z,16.44
2019-04-20T07:48:39.627Z,16.47
2019-04-20T07:49:41.616Z,16.54
2019-04-20T07:50:34.726Z,16.51
2019-04-20T07:51:27.707Z,16.55
2019-04-20T07:52:33.834Z,16.55
2019-04-20T07:53:37.913Z,16.60
2019-04-20T07:54:49.274Z,16.69
2019-04-20T07:56:44.785Z,16.75
2019-04-20T07:57:39.096Z,16.85
2019-04-20T07:58:31.677Z,16.96
2019-04-20T07:59:34.022Z,16.85
2019-04-20T08:00:51.886Z,16.98
2019-04-20T08:01:47.897Z,17.06
2019-04-20T08:02:42.540Z,17.06
2019-04-20T08:03:44.190Z,17.09
2019-04-20T08:04:36.777Z,17.18
2019-04-20T08:05:33.709Z,17.30
2019-04-20T08:06:28.941Z,17.30
2019-04-20T08:07:36.149Z,17.43
2019-04-20T08:08:35.025Z,17.46
2019-04-20T08:09:28.855Z,17.36
2019-04-20T08:10:33.821Z,17.54
2019-04-20T08:11:44.836Z,17.57
2019-04-20T08:12:41.802Z,17.65
2019-04-20T08:13:45.696Z,17.79
2019-04-20T08:14:46.709Z,17.76
2019-04-20T08:15:49.274Z,17.84
2019-04-20T08:16:46.699Z,17.87
2019-04-20T08:17:51.281Z,17.89
2019-04-20T08:18:46.976Z,18.04
2019-04-20T08:19:39.714Z,17.99
2019-04-20T08:20:43.920Z,17.99
2019-04-20T08:21:43.684Z,18.11
2019-04-20T08:22:46.643Z,18.11
2019-04-20T08:23:38.641Z,18.23
2019-04-20T08:24:37.193Z,18.20
2019-04-20T08:25:35.098Z,18.32
2019-04-20T08:26:28.306Z,18.38
2019-04-20T08:27:21.241Z,18.44
2019-04-20T08:28:28.409Z,18.47
2019-04-20T08:29:33.931Z,18.50
2019-04-20T08:30:35.308Z,18.65
2019-04-20T08:31:33.505Z,18.60
2019-04-20T08:32:37.741Z,18.64
2019-04-20T08:33:47.086Z,18.75
2019-04-20T08:34:43.175Z,18.82
2019-04-20T08:35:48.109Z,18.93
2019-04-20T08:36:43.230Z,18.96
2019-04-20T08:37:40.095Z,18.97
2019-04-20T08:40:43.478Z,19.15
2019-04-20T08:41:38.518Z,19.12
2019-04-20T08:42:49.961Z,19.17
2019-04-20T08:43:47.235Z,19.16
2019-04-20T08:44:53.813Z,19.24
2019-04-20T08:45:43.024Z,19.24
2019-04-20T08:46:40.330Z,19.30
2019-04-20T08:47:44.784Z,19.45
2019-04-20T08:48:43.571Z,19.42
2019-04-20T08:49:41.407Z,19.45
2019-04-20T08:50:35.671Z,19.53
2019-04-20T08:51:53.783Z,19.42
2019-04-20T08:53:44.686Z,19.64
2019-04-20T08:54:34.475Z,19.60
2019-04-20T08:55:38.772Z,19.58
2019-04-20T08:56:31.821Z,19.62
2019-04-20T08:57:20.092Z,19.71
2019-04-20T08:58:18.704Z,19.80
2019-04-20T08:59:18.944Z,19.86
2019-04-20T09:00:27.802Z,19.87
2019-04-20T09:01:21.551Z,19.97
2019-04-20T09:02:20.694Z,19.92
2019-04-20T09:03:25.382Z,20.07
2019-04-20T09:04:24.267Z,20.10
2019-04-20T09:05:31.132Z,20.16
2019-04-20T09:06:36.509Z,20.20
2019-04-20T09:07:24.378Z,20.23
2019-04-20T09:08:24.976Z,20.26
2019-04-20T09:09:56.451Z,20.33
2019-04-20T09:10:39.432Z,20.38
2019-04-20T09:11:45.145Z,20.50
2019-04-20T09:12:35.756Z,20.51
2019-04-20T09:13:26.911Z,20.61
2019-04-20T09:14:21.443Z,20.63
2019-04-20T09:15:19.011Z,20.63
2019-04-20T09:16:20.776Z,20.71
2019-04-20T09:17:28.465Z,20.75
2019-04-20T09:18:26.000Z,20.78
2019-04-20T09:19:32.486Z,20.83
2019-04-20T09:20:35.004Z,20.90
2019-04-20T09:21:30.384Z,20.93
2019-04-20T09:22:28.367Z,20.91
2019-04-20T09:23:33.489Z,21.00
2019-04-20T09:24:43.551Z,20.98
2019-04-20T09:25:53.381Z,21.12
2019-04-20T09:26:37.699Z,21.13
2019-04-20T09:27:29.262Z,21.26
2019-04-20T09:28:31.100Z,21.21
2019-04-20T09:29:33.392Z,21.18
2019-04-20T09:30:34.876Z,21.30
2019-04-20T09:31:36.490Z,21.22
2019-04-20T09:32:34.337Z,21.22
2019-04-20T09:33:36.375Z,21.31
2019-04-20T09:34:41.910Z,21.30
2019-04-20T09:35:39.137Z,21.36
2019-04-20T09:36:33.601Z,21.43
2019-04-20T09:37:36.902Z,21.49
2019-04-20T09:38:37.892Z,21.61
2019-04-20T09:39:28.041Z,21.59
2019-04-20T09:40:37.203Z,21.58
2019-04-20T09:41:45.257Z,21.75
2019-04-20T09:42:19.267Z,21.75
2019-04-20T09:43:19.082Z,21.68
2019-04-20T09:44:18.215Z,21.59
2019-04-20T09:45:30.253Z,21.77
2019-04-20T09:46:20.010Z,21.89
2019-04-20T09:47:26.471Z,21.89
2019-04-20T09:48:29.631Z,21.83
2019-04-20T09:49:34.501Z,21.89
2019-04-20T09:50:33.470Z,21.89
2019-04-20T09:51:38.830Z,21.83
2019-04-20T09:52:31.264Z,21.98
2019-04-20T09:53:29.438Z,22.01
2019-04-20T09:54:36.091Z,21.98
2019-04-20T09:55:31.253Z,22.11
2019-04-20T09:56:32.423Z,22.17
2019-04-20T09:57:42.530Z,22.20
2019-04-20T09:58:30.925Z,22.29
2019-04-20T09:59:39.728Z,22.48
2019-04-20T10:00:37.371Z,22.60
2019-04-20T10:01:30.439Z,22.60
2019-04-20T10:02:24.933Z,22.67
2019-04-20T10:03:18.983Z,22.72
2019-04-20T10:04:17.981Z,22.76
2019-04-20T10:05:17.962Z,22.79
2019-04-20T10:06:23.029Z,22.75
2019-04-20T10:07:22.276Z,22.74
2019-04-20T10:08:19.659Z,22.76
2019-04-20T10:09:20.403Z,22.81
2019-04-20T10:10:31.151Z,22.81
2019-04-20T10:11:19.422Z,22.79
2019-04-20T10:12:17.935Z,22.82
2019-04-20T10:13:17.887Z,22.91
2019-04-20T10:14:17.891Z,23.07
2019-04-20T10:15:21.360Z,23.04
2019-04-20T10:16:19.726Z,23.15
2019-04-20T10:17:18.134Z,23.23
2019-04-20T10:18:17.860Z,23.15
2019-04-20T10:19:25.117Z,23.26
2019-04-20T10:20:26.715Z,23.29
2019-04-20T10:21:19.911Z,23.31
2019-04-20T10:22:18.447Z,23.39
2019-04-20T10:23:18.556Z,23.52
2019-04-20T10:24:18.871Z,23.45
2019-04-20T10:25:18.296Z,23.59
2019-04-20T10:26:18.650Z,23.54
2019-04-20T10:27:18.765Z,23.52
2019-04-20T10:28:17.744Z,23.45
2019-04-20T10:29:17.703Z,23.38
2019-04-20T10:30:18.649Z,23.49
2019-04-20T10:31:17.679Z,23.49
2019-04-20T10:32:17.980Z,23.49
2019-04-20T10:33:17.719Z,23.64
2019-04-20T10:34:18.041Z,23.77
2019-04-20T10:35:18.833Z,23.96
2019-04-20T10:37:19.764Z,23.90
2019-04-20T10:38:17.916Z,23.87
2019-04-20T10:39:18.477Z,24.04
2019-04-20T10:40:35.797Z,24.19
2019-04-20T10:41:29.617Z,24.26
2019-04-20T10:42:18.562Z,24.33
2019-04-20T10:43:17.589Z,24.29
2019-04-20T10:44:18.646Z,24.36
2019-04-20T10:45:17.531Z,24.37
2019-04-20T10:46:17.530Z,24.33
2019-04-20T10:47:18.884Z,24.33
2019-04-20T10:48:17.514Z,24.36
2019-04-20T10:49:17.599Z,24.45
2019-04-20T10:50:18.758Z,24.55
2019-04-20T10:51:17.757Z,24.53
2019-04-20T10:52:17.875Z,24.46
2019-04-20T10:53:17.651Z,24.46
2019-04-20T10:54:18.405Z,24.51
2019-04-20T10:55:18.609Z,24.53
2019-04-20T10:56:17.420Z,24.55
2019-04-20T10:57:17.517Z,24.61
2019-04-20T10:58:17.721Z,24.75
2019-04-20T10:59:17.408Z,24.77
2019-04-20T11:00:17.592Z,24.80
2019-04-20T11:01:17.851Z,24.94
2019-04-20T11:02:17.353Z,25.01
2019-04-20T11:03:17.768Z,24.84
2019-04-20T11:04:18.737Z,24.84
2019-04-20T11:05:17.320Z,24.89
2019-04-20T11:06:18.559Z,24.90
2019-04-20T11:07:18.513Z,24.86
2019-04-20T11:08:17.285Z,24.89
2019-04-20T11:09:18.464Z,25.04
2019-04-20T11:10:22.791Z,25.02
2019-04-20T11:11:25.270Z,25.11
2019-04-20T11:12:18.244Z,25.08
2019-04-20T11:13:17.305Z,25.23
2019-04-20T11:14:24.657Z,25.34
2019-04-20T11:15:18.666Z,25.48
2019-04-20T11:16:18.108Z,25.45
2019-04-20T11:17:18.212Z,25.44
2019-04-20T11:18:17.690Z,25.57
2019-04-20T11:19:17.203Z,25.46
2019-04-20T11:20:17.320Z,25.39
2019-04-20T11:21:17.500Z,25.51
2019-04-20T11:22:17.131Z,25.53
2019-04-20T11:23:18.207Z,25.46
2019-04-20T11:24:18.310Z,25.59
2019-04-20T11:25:17.141Z,25.57
2019-04-20T11:26:18.121Z,25.66
2019-04-20T11:27:18.337Z,25.61
2019-04-20T11:28:17.070Z,25.72
2019-04-20T11:29:18.159Z,25.51
2019-04-20T11:30:18.214Z,25.51
2019-04-20T11:31:17.054Z,25.44
2019-04-20T11:32:18.034Z,25.56
2019-04-20T11:33:18.239Z,25.61
2019-04-20T11:34:24.889Z,25.79
2019-04-20T11:35:25.722Z,25.90
2019-04-20T11:36:19.154Z,25.94
2019-04-20T11:37:17.278Z,25.97
2019-04-20T11:38:17.458Z,26.01
2019-04-20T11:39:16.949Z,26.03
2019-04-20T11:40:17.087Z,26.03
2019-04-20T11:41:23.756Z,26.19
2019-04-20T11:42:17.926Z,26.19
2019-04-20T11:43:17.810Z,26.29
2019-04-20T11:44:17.912Z,26.32
2019-04-20T11:45:18.329Z,26.44
2019-04-20T11:46:16.888Z,26.47
2019-04-20T11:47:16.899Z,26.49
2019-04-20T11:48:16.865Z,26.47
2019-04-20T11:49:17.495Z,26.42
2019-04-20T11:50:17.843Z,26.46
2019-04-20T11:51:16.819Z,26.46
2019-04-20T11:52:19.687Z,26.54
2019-04-20T11:53:17.487Z,26.60
2019-04-20T11:54:16.783Z,26.68
2019-04-20T11:55:18.067Z,26.59
2019-04-20T11:56:22.450Z,26.64
2019-04-20T11:57:17.751Z,26.65
2019-04-20T11:58:16.746Z,26.73
2019-04-20T11:59:16.988Z,26.90
2019-04-20T12:00:17.262Z,26.79
2019-04-20T12:01:20.805Z,26.78
2019-04-20T12:02:25.317Z,26.79
2019-04-20T12:03:25.079Z,26.86
2019-04-20T12:04:30.697Z,26.87
2019-04-20T12:05:28.114Z,26.88
2019-04-20T12:06:18.939Z,26.94
2019-04-20T12:07:17.127Z,27.02
2019-04-20T12:08:16.730Z,26.97
2019-04-20T12:09:17.056Z,26.91
2019-04-20T12:10:20.990Z,26.98
2019-04-20T12:11:26.546Z,26.84
2019-04-20T12:12:27.258Z,26.66
2019-04-20T12:13:18.484Z,26.59
2019-04-20T12:14:16.763Z,26.46
2019-04-20T12:15:16.903Z,26.36
2019-04-20T12:16:17.332Z,26.38
2019-04-20T12:17:17.639Z,26.57
2019-04-20T12:18:17.831Z,26.59
2019-04-20T12:19:16.514Z,26.54
2019-04-20T12:20:16.779Z,26.50
2019-04-20T12:21:16.863Z,26.47
2019-04-20T12:22:16.494Z,26.49
2019-04-20T12:23:16.485Z,26.49
2019-04-20T12:24:16.564Z,26.59
2019-04-20T12:25:16.456Z,26.47
2019-04-20T12:26:16.472Z,26.27
2019-04-20T12:27:16.715Z,26.12
2019-04-20T12:28:17.852Z,26.16
2019-04-20T12:29:16.419Z,26.12
2019-04-20T12:30:17.519Z,26.24
2019-04-20T12:31:20.414Z,26.16
2019-04-20T12:32:17.379Z,26.20
2019-04-20T12:33:17.683Z,26.31
2019-04-20T12:34:16.376Z,26.29
2019-04-20T12:35:16.354Z,26.32
2019-04-20T12:36:16.493Z,26.32
2019-04-20T12:37:16.318Z,26.38
2019-04-20T12:38:17.150Z,26.44
2019-04-20T12:39:17.258Z,26.44
2019-04-20T12:40:17.358Z,26.29
2019-04-20T12:41:16.318Z,26.31
2019-04-20T12:42:17.001Z,26.29
2019-04-20T12:43:17.359Z,26.12
2019-04-20T12:44:17.490Z,26.16
2019-04-20T12:45:17.590Z,26.20
2019-04-20T12:46:18.338Z,26.29
2019-04-20T12:47:17.476Z,26.36
2019-04-20T12:48:17.513Z,26.41
2019-04-20T12:49:16.210Z,26.49
2019-04-20T12:51:17.545Z,26.68
2019-04-20T12:52:16.666Z,26.81
2019-04-20T12:53:17.036Z,26.93
2019-04-20T12:54:16.571Z,27.02
2019-04-20T12:55:16.646Z,26.86
2019-04-20T12:56:16.888Z,26.73
2019-04-20T12:57:16.571Z,26.75
2019-04-20T12:58:16.726Z,26.68
2019-04-20T12:59:16.082Z,26.61
2019-04-20T13:00:17.353Z,26.57
2019-04-20T13:01:17.765Z,26.56
2019-04-20T13:02:17.488Z,26.49
2019-04-20T13:03:17.282Z,26.50
2019-04-20T13:04:16.495Z,26.39
2019-04-20T13:05:17.477Z,26.28
2019-04-20T13:06:16.321Z,26.23
2019-04-20T13:07:16.041Z,26.27
2019-04-20T13:08:23.298Z,26.21
2019-04-20T13:09:16.990Z,26.35
2019-04-20T13:10:15.988Z,26.27
2019-04-20T13:11:16.309Z,26.27
2019-04-20T13:12:17.320Z,26.31
2019-04-20T13:13:16.574Z,26.35
2019-04-20T13:14:16.640Z,26.47
2019-04-20T13:15:16.167Z,26.64
2019-04-20T13:16:16.409Z,26.68
2019-04-20T13:17:16.644Z,26.76
2019-04-20T13:18:16.997Z,26.73
2019-04-20T13:19:17.192Z,26.61
2019-04-20T13:20:16.124Z,26.51
2019-04-20T13:21:16.754Z,26.36